createdAt,value
2018-04-29T00:01:47.591Z,7.43
2018-04-29T00:04:15.521Z,7.60
2018-04-29T00:06:43.495Z,8.33
2018-04-29T00:09:11.489Z,7.50
2018-04-29T00:11:39.454Z,8.20
2018-04-29T00:14:07.377Z,7.70
2018-04-29T00:16:35.284Z,8.83
2018-04-29T00:19:03.230Z,8.70
2018-04-29T00:21:31.130Z,8.17
2018-04-29T00:23:59.057Z,7.50
2018-04-29T00:26:26.967Z,8.90
2018-04-29T00:28:54.894Z,7.97
2018-04-29T00:31:22.814Z,7.13
2018-04-29T00:33:50.729Z,6.43
2018-04-29T00:36:18.658Z,7.27
2018-04-29T00:38:46.572Z,6.13
2018-04-29T00:41:15.361Z,7.27
2018-04-29T00:43:43.281Z,7.50
2018-04-29T00:46:11.198Z,7.67
2018-04-29T00:48:39.149Z,7.87
2018-04-29T00:51:07.054Z,7.50
2018-04-29T00:53:35.672Z,7.43
2018-04-29T00:56:03.628Z,7.20
2018-04-29T00:58:31.547Z,7.20
2018-04-29T01:00:59.478Z,7.47
2018-04-29T01:03:28.118Z,6.70
2018-04-29T01:05:56.074Z,7.57
2018-04-29T01:08:23.977Z,6.20
2018-04-29T01:10:51.873Z,7.50
2018-04-29T01:13:19.838Z,7.70
2018-04-29T01:15:47.751Z,7.23
2018-04-29T01:18:15.658Z,6.97
2018-04-29T01:20:43.583Z,7.97
2018-04-29T01:23:12.510Z,7.40
2018-04-29T01:25:40.401Z,7.10
2018-04-29T01:28:08.319Z,7.50
2018-04-29T01:30:36.250Z,7.77
2018-04-29T01:33:05.155Z,7.60
2018-04-29T01:35:33.481Z,7.27
2018-04-29T01:38:01.390Z,8.30
2018-04-29T01:40:29.731Z,7.40
2018-04-29T01:42:58.593Z,8.30
2018-04-29T01:45:26.493Z,7.53
2018-04-29T01:47:54.410Z,7.97
2018-04-29T01:50:22.327Z,7.97
2018-04-29T01:52:50.241Z,7.23
2018-04-29T01:55:18.187Z,7.20
2018-04-29T01:57:46.101Z,8.30
2018-04-29T02:00:14.005Z,7.07
2018-04-29T02:02:41.939Z,7.30
2018-04-29T02:05:10.469Z,7.20
2018-04-29T02:07:38.539Z,7.80
2018-04-29T02:10:06.453Z,6.83
2018-04-29T02:12:34.387Z,7.83
2018-04-29T02:15:03.264Z,7.23
2018-04-29T02:17:31.342Z,8.30
2018-04-29T02:19:59.258Z,7.40
2018-04-29T02:22:27.192Z,7.30
2018-04-29T02:24:55.115Z,7.03
2018-04-29T02:27:23.047Z,7.20
2018-04-29T02:29:50.963Z,6.70
2018-04-29T02:32:18.868Z,7.20
2018-04-29T02:34:46.791Z,8.00
2018-04-29T02:37:14.692Z,7.27
2018-04-29T02:39:43.580Z,7.10
2018-04-29T02:42:11.504Z,6.63
2018-04-29T02:44:40.365Z,7.47
2018-04-29T02:47:08.290Z,7.20
2018-04-29T02:49:37.024Z,6.20
2018-04-29T02:52:04.947Z,7.23
2018-04-29T02:54:33.804Z,8.17
2018-04-29T02:57:01.725Z,7.87
2018-04-29T02:59:30.609Z,7.03
2018-04-29T03:01:59.478Z,8.00
2018-04-29T03:04:28.356Z,7.67
2018-04-29T03:06:57.223Z,7.87
2018-04-29T03:09:26.084Z,8.17
2018-04-29T03:11:54.961Z,8.37
2018-04-29T03:14:23.812Z,7.83
2018-04-29T03:16:52.693Z,6.80
2018-04-29T03:19:21.545Z,8.63
2018-04-29T03:21:50.405Z,8.33
2018-04-29T03:24:19.275Z,8.00
2018-04-29T03:26:48.140Z,8.60
2018-04-29T03:29:17.289Z,7.90
2018-04-29T03:31:46.140Z,9.30
2018-04-29T03:34:15.008Z,8.13
2018-04-29T03:36:43.903Z,8.60
2018-04-29T03:39:12.757Z,7.10
2018-04-29T03:41:41.618Z,8.50
2018-04-29T03:44:10.611Z,7.87
2018-04-29T03:46:39.461Z,7.17
2018-04-29T03:49:08.320Z,8.27
2018-04-29T03:51:37.211Z,8.97
2018-04-29T03:54:06.077Z,9.50
2018-04-29T03:56:34.943Z,6.67
2018-04-29T03:59:09.651Z,7.60
2018-04-29T04:01:51.285Z,7.20
2018-04-29T04:04:13.264Z,8.40
2018-04-29T04:06:42.210Z,8.80
2018-04-29T04:09:11.066Z,7.80
2018-04-29T04:11:39.952Z,8.03
2018-04-29T04:14:08.812Z,8.10
2018-04-29T04:16:37.669Z,7.50
2018-04-29T04:19:06.582Z,7.60
2018-04-29T04:21:35.952Z,7.63
2018-04-29T04:24:04.809Z,7.80
2018-04-29T04:26:33.710Z,8.77
2018-04-29T04:29:02.579Z,7.70
2018-04-29T04:31:31.480Z,8.03
2018-04-29T04:34:00.358Z,8.10
2018-04-29T04:36:29.226Z,7.57
2018-04-29T04:38:58.096Z,7.40
2018-04-29T04:41:26.981Z,7.70
2018-04-29T04:43:55.838Z,7.00
2018-04-29T04:46:24.711Z,8.10
2018-04-29T04:48:53.621Z,8.57
2018-04-29T04:51:22.483Z,8.23
2018-04-29T04:53:51.340Z,7.87
2018-04-29T04:56:20.224Z,9.10
2018-04-29T04:58:48.125Z,8.27
2018-04-29T05:01:16.030Z,7.93
2018-04-29T05:03:44.625Z,8.70
2018-04-29T05:06:12.555Z,8.67
2018-04-29T05:08:40.466Z,7.13
2018-04-29T05:11:09.347Z,7.23
2018-04-29T05:13:38.226Z,7.90
2018-04-29T05:16:07.103Z,7.00
2018-04-29T05:18:35.991Z,7.33
2018-04-29T05:21:04.848Z,7.50
2018-04-29T05:23:33.705Z,7.50
2018-04-29T05:26:02.572Z,7.70
2018-04-29T05:28:31.433Z,7.77
2018-04-29T05:31:00.287Z,6.97
2018-04-29T05:33:29.186Z,7.50
2018-04-29T05:35:58.054Z,7.67
2018-04-29T05:38:26.913Z,7.17
2018-04-29T05:40:55.793Z,8.23
2018-04-29T05:43:24.770Z,8.17
2018-04-29T05:45:53.638Z,8.20
2018-04-29T05:48:22.517Z,8.37
2018-04-29T05:50:51.376Z,8.40
2018-04-29T05:53:19.277Z,8.07
2018-04-29T05:55:47.214Z,8.87
2018-04-29T05:58:16.089Z,7.90
2018-04-29T06:00:44.000Z,8.77
2018-04-29T06:03:11.973Z,8.67
2018-04-29T06:05:39.872Z,8.90
2018-04-29T06:08:07.792Z,8.80
2018-04-29T06:10:35.730Z,8.20
2018-04-29T06:13:04.595Z,8.57
2018-04-29T06:15:33.457Z,7.63
2018-04-29T06:18:01.395Z,9.27
2018-04-29T06:20:29.364Z,8.27
2018-04-29T06:22:57.241Z,8.97
2018-04-29T06:25:25.178Z,9.53
2018-04-29T06:27:53.092Z,7.70
2018-04-29T06:30:21.662Z,8.87
2018-04-29T06:32:49.595Z,7.80
2018-04-29T06:35:17.689Z,9.03
2018-04-29T06:37:45.652Z,8.20
2018-04-29T06:40:13.587Z,8.20
2018-04-29T06:42:41.489Z,8.20
2018-04-29T06:45:09.687Z,8.60
2018-04-29T06:47:37.627Z,8.10
2018-04-29T06:50:06.500Z,7.30
2018-04-29T06:52:34.433Z,7.20
2018-04-29T06:55:02.341Z,7.30
2018-04-29T06:57:30.253Z,5.90
2018-04-29T06:59:58.176Z,5.60
2018-04-29T07:02:26.091Z,6.77
2018-04-29T07:04:54.568Z,6.90
2018-04-29T07:07:23.439Z,7.10
2018-04-29T07:09:52.362Z,7.07
2018-04-29T07:12:21.263Z,6.93
2018-04-29T07:14:49.202Z,6.57
2018-04-29T07:17:17.126Z,6.23
2018-04-29T07:19:45.057Z,7.53
2018-04-29T07:22:12.972Z,7.17
2018-04-29T07:24:40.875Z,7.00
2018-04-29T07:27:08.830Z,8.10
2018-04-29T07:29:36.731Z,7.53
2018-04-29T07:32:04.839Z,6.60
2018-04-29T07:34:32.789Z,7.47
2018-04-29T07:37:00.712Z,7.83
2018-04-29T07:39:28.629Z,7.70
2018-04-29T07:41:56.588Z,11.60
2018-04-29T07:44:24.494Z,8.67
2018-04-29T07:46:52.436Z,7.73
2018-04-29T07:49:20.362Z,7.33
2018-04-29T07:51:48.285Z,7.40
2018-04-29T07:54:16.208Z,8.20
2018-04-29T07:56:44.151Z,6.87
2018-04-29T07:59:12.066Z,7.80
2018-04-29T08:01:39.985Z,7.60
2018-04-29T08:04:08.603Z,7.87
2018-04-29T08:06:36.532Z,8.00
2018-04-29T08:09:04.469Z,9.53
2018-04-29T08:11:32.400Z,8.17
2018-04-29T08:14:00.314Z,7.50
2018-04-29T08:16:28.223Z,8.10
2018-04-29T08:18:57.090Z,8.90
2018-04-29T08:21:25.002Z,8.80
2018-04-29T08:23:52.925Z,8.53
2018-04-29T08:26:20.890Z,8.93
2018-04-29T08:28:48.808Z,9.97
2018-04-29T08:31:16.709Z,8.33
2018-04-29T08:33:44.642Z,8.90
2018-04-29T08:36:12.970Z,8.60
2018-04-29T08:38:40.848Z,8.90
2018-04-29T08:41:08.793Z,7.40
2018-04-29T08:43:36.702Z,7.90
2018-04-29T08:46:04.627Z,9.00
2018-04-29T08:48:32.596Z,9.30
2018-04-29T08:51:00.506Z,9.20
2018-04-29T08:53:28.418Z,8.83
2018-04-29T08:55:56.360Z,9.57
2018-04-29T08:58:24.270Z,10.43
2018-04-29T09:00:52.215Z,10.47
2018-04-29T09:03:20.154Z,10.60
2018-04-29T09:05:48.091Z,10.83
2018-04-29T09:08:16.014Z,10.73
2018-04-29T09:10:43.968Z,10.17
2018-04-29T09:13:11.898Z,11.10
2018-04-29T09:15:39.826Z,10.40
2018-04-29T09:18:07.773Z,10.87
2018-04-29T09:20:35.688Z,10.37
2018-04-29T09:23:03.639Z,10.77
2018-04-29T09:25:32.221Z,11.70
2018-04-29T09:28:00.140Z,10.90
2018-04-29T09:30:28.070Z,11.17
2018-04-29T09:32:56.001Z,11.13
2018-04-29T09:35:23.926Z,10.10
2018-04-29T09:37:51.886Z,12.63
2018-04-29T09:40:20.440Z,11.13
2018-04-29T09:42:48.600Z,10.17
2018-04-29T09:45:16.528Z,11.50
2018-04-29T09:47:44.474Z,10.70
2018-04-29T09:50:12.470Z,9.33
2018-04-29T09:52:40.413Z,11.10
2018-04-29T09:55:08.430Z,10.37
2018-04-29T09:57:36.319Z,8.30
2018-04-29T10:00:04.245Z,9.47
2018-04-29T10:02:32.178Z,9.60
2018-04-29T10:05:00.087Z,10.17
2018-04-29T10:07:28.014Z,8.17
2018-04-29T10:09:56.489Z,9.27
2018-04-29T10:12:25.029Z,8.50
2018-04-29T10:14:52.939Z,8.60
2018-04-29T10:17:20.910Z,10.30
2018-04-29T10:19:48.823Z,7.47
2018-04-29T10:22:16.940Z,9.13
2018-04-29T10:24:44.899Z,8.37
2018-04-29T10:27:12.826Z,8.30
2018-04-29T10:29:40.734Z,7.67
2018-04-29T10:32:08.666Z,6.30
2018-04-29T10:34:37.014Z,5.43
2018-04-29T10:37:04.909Z,5.10
2018-04-29T10:39:32.849Z,5.07
2018-04-29T10:42:00.793Z,6.20
2018-04-29T10:44:28.713Z,5.63
2018-04-29T10:46:56.655Z,6.20
2018-04-29T10:49:24.566Z,5.67
2018-04-29T10:51:52.486Z,5.73
2018-04-29T10:54:20.429Z,5.60
2018-04-29T10:56:48.384Z,5.43
2018-04-29T10:59:16.311Z,4.47
2018-04-29T11:01:44.251Z,5.00
2018-04-29T11:04:12.165Z,5.23
2018-04-29T11:06:40.081Z,5.50
2018-04-29T11:09:08.026Z,5.90
2018-04-29T11:11:35.943Z,6.10
2018-04-29T11:14:03.857Z,5.33
2018-04-29T11:16:31.795Z,5.50
2018-04-29T11:18:59.720Z,5.00
2018-04-29T11:21:27.623Z,5.70
2018-04-29T11:23:55.542Z,5.03
2018-04-29T11:26:23.454Z,5.43
2018-04-29T11:28:51.390Z,5.00
2018-04-29T11:31:19.299Z,4.73
2018-04-29T11:33:47.205Z,4.80
2018-04-29T11:36:15.138Z,4.57
2018-04-29T11:38:43.047Z,3.90
2018-04-29T11:41:10.984Z,4.97
2018-04-29T11:43:38.892Z,3.67
2018-04-29T11:46:06.808Z,3.33
2018-04-29T11:48:34.754Z,3.30
2018-04-29T11:51:02.678Z,2.80
2018-04-29T11:53:30.634Z,3.50
2018-04-29T11:55:58.558Z,3.27
2018-04-29T11:58:26.479Z,3.40
2018-04-29T12:00:54.400Z,3.63
2018-04-29T12:03:22.320Z,3.60
2018-04-29T12:05:50.253Z,3.83
2018-04-29T12:08:18.176Z,4.00
2018-04-29T12:10:46.100Z,3.47
2018-04-29T12:13:14.230Z,3.53
2018-04-29T12:15:42.195Z,3.70
2018-04-29T12:18:10.149Z,2.97
2018-04-29T12:20:38.068Z,3.70
2018-04-29T12:23:06.819Z,3.83
2018-04-29T12:25:34.937Z,3.30
2018-04-29T12:28:02.859Z,3.80
2018-04-29T12:30:30.822Z,2.87
2018-04-29T12:32:58.777Z,2.43
2018-04-29T12:35:26.700Z,2.90
2018-04-29T12:37:54.658Z,3.00
2018-04-29T12:40:22.569Z,2.87
2018-04-29T12:48:27.118Z,2.83
2018-04-29T12:50:55.021Z,3.20
2018-04-29T12:53:22.951Z,2.57
2018-04-29T12:55:50.890Z,3.17
2018-04-29T12:58:18.788Z,2.50
2018-04-29T13:00:46.694Z,3.27
2018-04-29T13:03:14.626Z,2.47
2018-04-29T13:05:42.612Z,2.50
2018-04-29T13:08:10.474Z,2.73
2018-04-29T13:10:38.403Z,2.80
2018-04-29T13:13:06.351Z,2.70
2018-04-29T13:15:34.486Z,2.90
2018-04-29T13:18:02.419Z,2.70
2018-04-29T13:20:30.344Z,2.63
2018-04-29T13:22:58.776Z,2.63
2018-04-29T13:25:26.740Z,3.00
2018-04-29T13:27:54.635Z,2.50
2018-04-29T13:30:22.576Z,2.90
2018-04-29T13:32:50.485Z,2.43
2018-04-29T13:35:18.427Z,3.60
2018-04-29T13:37:46.363Z,2.47
2018-04-29T13:40:14.351Z,2.73
2018-04-29T13:42:42.448Z,2.90
2018-04-29T13:45:10.769Z,2.53
2018-04-29T13:47:38.683Z,2.17
2018-04-29T13:50:06.647Z,2.43
2018-04-29T13:52:35.017Z,2.50
2018-04-29T13:55:03.127Z,2.67
2018-04-29T13:57:31.059Z,2.37
2018-04-29T13:59:58.965Z,2.13
2018-04-29T14:02:26.983Z,2.60
2018-04-29T14:04:54.974Z,3.30
2018-04-29T14:07:22.863Z,2.60
2018-04-29T14:09:50.911Z,2.57
2018-04-29T14:12:19.099Z,2.23
2018-04-29T14:14:47.127Z,2.20
2018-04-29T14:17:15.058Z,2.27
2018-04-29T14:19:43.013Z,2.40
2018-04-29T14:22:10.925Z,2.40
2018-04-29T14:24:39.671Z,2.43
2018-04-29T14:27:08.398Z,2.37
2018-04-29T14:29:36.314Z,2.37
2018-04-29T14:32:04.228Z,2.40
2018-04-29T14:34:32.164Z,2.60
2018-04-29T14:37:00.813Z,2.73
2018-04-29T14:39:29.474Z,2.80
2018-04-29T14:41:57.364Z,2.50
2018-04-29T14:44:25.258Z,2.40
2018-04-29T14:46:53.189Z,2.80
2018-04-29T14:49:21.094Z,2.50
2018-04-29T14:51:49.015Z,3.10
2018-04-29T14:54:16.946Z,2.40
2018-04-29T14:56:44.844Z,2.30
2018-04-29T14:59:12.756Z,3.07
2018-04-29T15:01:40.684Z,2.23
2018-04-29T15:09:42.672Z,3.13
2018-04-29T15:12:10.585Z,2.40
2018-04-29T15:14:38.482Z,2.80
2018-04-29T15:17:06.390Z,2.77
2018-04-29T15:19:45.998Z,2.97
2018-04-29T15:22:13.928Z,2.70
2018-04-29T15:24:41.838Z,2.53
2018-04-29T15:27:09.894Z,2.87
2018-04-29T15:29:37.796Z,3.10
2018-04-29T15:34:39.871Z,2.80
2018-04-29T15:37:07.803Z,2.90
2018-04-29T15:39:35.767Z,2.90
2018-04-29T15:42:03.696Z,3.13
2018-04-29T15:44:31.597Z,3.10
2018-04-29T15:46:59.512Z,2.50
2018-04-29T15:49:27.635Z,2.30
2018-04-29T15:51:55.558Z,2.37
2018-04-29T15:54:23.574Z,2.73
2018-04-29T15:56:51.519Z,2.60
2018-04-29T15:59:19.441Z,3.80
2018-04-29T16:01:47.348Z,2.83
2018-04-29T16:04:15.297Z,2.80
2018-04-29T16:06:43.200Z,3.07
2018-04-29T16:09:12.051Z,2.53
2018-04-29T16:11:40.019Z,2.97
2018-04-29T16:14:07.924Z,2.40
2018-04-29T16:16:35.830Z,2.67
2018-04-29T16:19:03.780Z,2.80
2018-04-29T16:21:31.835Z,2.97
2018-04-29T16:23:59.837Z,2.73
2018-04-29T16:26:27.752Z,2.60
2018-04-29T16:28:55.653Z,2.63
2018-04-29T16:31:23.569Z,2.97
2018-04-29T16:33:51.484Z,2.80
2018-04-29T16:36:19.400Z,2.97
2018-04-29T16:38:47.336Z,2.87
2018-04-29T16:41:15.269Z,2.87
2018-04-29T16:43:43.723Z,2.40
2018-04-29T16:46:11.652Z,2.80
2018-04-29T16:48:39.579Z,2.57
2018-04-29T16:51:07.695Z,2.83
2018-04-29T16:53:35.628Z,2.47
2018-04-29T16:56:03.556Z,2.30
2018-04-29T16:58:31.686Z,3.10
2018-04-29T17:00:59.604Z,4.37
2018-04-29T17:03:27.506Z,3.80
2018-04-29T17:05:55.416Z,2.57
2018-04-29T17:08:23.843Z,3.10
2018-04-29T17:10:52.295Z,2.90
2018-04-29T17:13:20.207Z,3.80
2018-04-29T17:15:48.869Z,3.10
2018-04-29T17:18:16.820Z,3.40
2018-04-29T17:20:44.726Z,3.10
2018-04-29T17:23:12.639Z,3.00
2018-04-29T17:25:40.604Z,2.97
2018-04-29T17:28:08.517Z,3.60
2018-04-29T17:30:36.449Z,2.97
2018-04-29T17:33:04.415Z,2.83
2018-04-29T17:35:32.334Z,2.80
2018-04-29T17:38:00.307Z,3.00
2018-04-29T17:40:28.258Z,2.77
2018-04-29T17:42:56.188Z,2.70
2018-04-29T17:45:24.117Z,3.53
2018-04-29T17:47:52.096Z,3.83
2018-04-29T17:50:20.174Z,3.57
2018-04-29T17:52:48.091Z,3.23
2018-04-29T17:55:16.054Z,3.00
2018-04-29T17:57:43.971Z,3.40
2018-04-29T18:00:12.016Z,3.47
2018-04-29T18:02:40.948Z,3.30
2018-04-29T18:05:08.900Z,3.40
2018-04-29T18:07:36.873Z,3.50
2018-04-29T18:10:04.890Z,4.27
2018-04-29T18:12:32.864Z,4.53
2018-04-29T18:15:00.807Z,4.07
2018-04-29T18:17:28.805Z,3.83
2018-04-29T18:19:56.789Z,3.70
2018-04-29T18:22:24.772Z,4.50
2018-04-29T18:24:52.996Z,3.43
2018-04-29T18:27:20.979Z,3.30
2018-04-29T18:29:49.903Z,2.93
2018-04-29T18:32:17.900Z,4.43
2018-04-29T18:34:45.893Z,3.70
2018-04-29T18:37:13.898Z,4.30
2018-04-29T18:39:41.977Z,4.20
2018-04-29T18:42:09.985Z,4.77
2018-04-29T18:44:38.984Z,5.67
2018-04-29T18:47:06.939Z,5.03
2018-04-29T18:49:34.941Z,4.57
2018-04-29T18:52:03.794Z,4.10
2018-04-29T18:54:31.768Z,4.63
2018-04-29T18:56:59.799Z,4.17
2018-04-29T18:59:27.774Z,5.40
2018-04-29T19:01:55.742Z,6.17
2018-04-29T19:04:24.435Z,7.20
2018-04-29T19:06:52.409Z,6.97
2018-04-29T19:09:20.430Z,7.73
2018-04-29T19:11:48.424Z,7.47
2018-04-29T19:14:16.429Z,6.40
2018-04-29T19:29:39.584Z,5.27
2018-04-29T19:32:07.589Z,5.17
2018-04-29T19:34:36.411Z,5.20
2018-04-29T19:37:05.937Z,4.77
2018-04-29T19:39:33.935Z,4.60
2018-04-29T19:42:02.050Z,5.43
2018-04-29T19:44:31.859Z,3.93
2018-04-29T19:46:59.859Z,3.73
2018-04-29T19:49:28.500Z,4.03
2018-04-29T19:51:56.519Z,3.50
2018-04-29T19:54:24.516Z,3.40
2018-04-29T19:56:53.114Z,3.60
2018-04-29T19:59:21.143Z,4.10
2018-04-29T20:01:49.716Z,3.87
2018-04-29T20:04:17.694Z,4.03
2018-04-29T20:06:45.856Z,4.10
2018-04-29T20:09:13.850Z,4.20
2018-04-29T20:11:41.891Z,4.20
2018-04-29T20:14:09.896Z,4.57
2018-04-29T20:16:37.928Z,4.00
2018-04-29T20:19:05.925Z,5.00
2018-04-29T20:21:33.908Z,5.37
2018-04-29T20:24:01.941Z,5.30
2018-04-29T20:26:29.941Z,4.83
2018-04-29T20:28:58.004Z,7.20
2018-04-29T20:31:26.028Z,6.20
2018-04-29T20:33:54.003Z,5.87
2018-04-29T20:36:21.958Z,5.70
2018-04-29T20:38:49.889Z,5.60
2018-04-29T20:41:17.841Z,5.27
2018-04-29T20:43:45.845Z,5.00
2018-04-29T20:46:13.806Z,4.80
2018-04-29T20:48:41.734Z,5.73
2018-04-29T20:51:09.672Z,5.93
2018-04-29T20:53:37.597Z,5.97
2018-04-29T20:56:05.550Z,5.40
2018-04-29T20:58:33.507Z,5.90
2018-04-29T21:01:01.428Z,6.40
2018-04-29T21:03:29.344Z,5.20
2018-04-29T21:05:57.291Z,6.93
2018-04-29T21:08:25.222Z,6.57
2018-04-29T21:10:53.149Z,6.97
2018-04-29T21:13:21.092Z,5.80
2018-04-29T21:15:49.345Z,6.40
2018-04-29T21:18:17.266Z,6.20
2018-04-29T21:20:45.210Z,5.73
2018-04-29T21:23:13.137Z,5.43
2018-04-29T21:25:41.051Z,4.90
2018-04-29T21:28:08.986Z,7.13
2018-04-29T21:30:36.929Z,5.63
2018-04-29T21:33:04.863Z,6.87
2018-04-29T21:35:32.826Z,6.70
2018-04-29T21:38:00.792Z,6.83
2018-04-29T21:40:28.712Z,7.00
2018-04-29T21:43:00.484Z,7.00
2018-04-29T21:45:28.446Z,7.20
2018-04-29T21:47:56.375Z,7.90
2018-04-29T21:50:24.326Z,7.13
2018-04-29T21:52:52.238Z,6.90
2018-04-29T21:55:20.876Z,6.73
2018-04-29T21:57:48.816Z,7.43
2018-04-29T22:00:16.738Z,7.47
2018-04-29T22:02:44.648Z,6.57
2018-04-29T22:05:12.569Z,6.73
2018-04-29T22:07:40.473Z,6.23
2018-04-29T22:10:08.374Z,7.77
2018-04-29T22:12:36.315Z,6.90
2018-04-29T22:15:04.257Z,6.80
2018-04-29T22:17:32.176Z,6.93
2018-04-29T22:20:00.107Z,6.97
2018-04-29T22:22:28.022Z,7.80
2018-04-29T22:24:55.932Z,8.13
2018-04-29T22:27:23.883Z,8.23
2018-04-29T22:29:51.804Z,7.27
2018-04-29T22:32:19.731Z,7.20
2018-04-29T22:34:47.714Z,7.37
2018-04-29T22:37:15.705Z,8.60
2018-04-29T22:39:43.542Z,7.70
2018-04-29T22:42:11.468Z,7.73
2018-04-29T22:44:40.178Z,8.37
2018-04-29T22:47:08.599Z,8.40
2018-04-29T22:49:36.569Z,8.77
2018-04-29T22:52:04.496Z,8.47
2018-04-29T22:54:32.469Z,8.10
2018-04-29T22:57:00.402Z,8.67
2018-04-29T22:59:28.339Z,8.33
2018-04-29T23:01:56.240Z,9.00
2018-04-29T23:04:24.171Z,8.23
2018-04-29T23:06:53.042Z,8.63
2018-04-29T23:09:21.518Z,8.90
2018-04-29T23:11:49.458Z,9.20
2018-04-29T23:14:17.363Z,8.67
2018-04-29T23:16:46.064Z,9.20
2018-04-29T23:19:14.002Z,7.67
2018-04-29T23:21:41.907Z,8.83
2018-04-29T23:24:09.823Z,7.97
2018-04-29T23:26:37.774Z,7.83
2018-04-29T23:29:05.681Z,7.20
2018-04-29T23:31:33.590Z,8.10
2018-04-29T23:34:01.534Z,7.87
2018-04-29T23:36:29.508Z,7.50
2018-04-29T23:38:58.390Z,7.97
2018-04-29T23:41:26.326Z,7.83
2018-04-29T23:43:54.342Z,8.37
2018-04-29T23:46:22.246Z,8.83
2018-04-29T23:48:50.168Z,7.80
2018-04-29T23:51:19.031Z,9.60
2018-04-29T23:53:46.929Z,8.40
2018-04-29T23:56:15.705Z,8.30
2018-04-29T23:58:43.887Z,8.60
